Terminal Aerodrome Forecast
Issued by NWS Cleveland, OH

Home | Current Version | Previous Version | Text Only | Print | Product List | Glossary Off
Versions: 1 2 3 4 5 6 7 8 9 10 11 12 13 14 15 16 17 18 19 20 21 22 23 24 25 26 27 28

000
FTUS41 KCLE 201039 AAC
TAFCLE
TAF AMD
KCLE 201039Z 2011/2112 13005KT 1 1/2SM BR OVC004
     FM201400 15007KT 5SM BR BKN004
     FM201500 17010KT P6SM SCT020 BKN050
     FM201700 22018G28KT P6SM BKN050
     FM202300 25015G25KT 5SM -SHRA OVC035
      TEMPO 2023/2102 27020G40KT 2SM TSRA OVC020CB
     FM210400 27012KT P6SM BKN080
     FM210900 25012KT P6SM BKN025=

USA.gov is the U.S. government's official web portal to all federal, state and local government web resources and services.